sensor_id;sensor_type;location;lat;lon;timestamp;temperature;humidity
31619;DHT22;18230;51.502;7.108;2023-06-10T00:04:29;21.90;99.90
31619;DHT22;18230;51.502;7.108;2023-06-10T00:09:30;21.90;99.90
31619;DHT22;18230;51.502;7.108;2023-06-10T00:14:31;21.80;99.90
31619;DHT22;18230;51.502;7.108;2023-06-10T00:19:31;21.60;99.90
31619;DHT22;18230;51.502;7.108;2023-06-10T00:24:32;21.50;99.90
31619;DHT22;18230;51.502;7.108;2023-06-10T00:29:33;21.50;99.90
31619;DHT22;18230;51.502;7.108;2023-06-10T00:34:33;21.40;99.90
31619;DHT22;18230;51.502;7.108;2023-06-10T00:39:34;21.40;99.90
31619;DHT22;18230;51.502;7.108;2023-06-10T00:44:35;21.30;99.90
31619;DHT22;18230;51.502;7.108;2023-06-10T00:49:35;21.10;99.90
31619;DHT22;18230;51.502;7.108;2023-06-10T00:54:37;21.10;99.90
31619;DHT22;18230;51.502;7.108;2023-06-10T00:59:40;21.10;99.90
31619;DHT22;18230;51.502;7.108;2023-06-10T01:04:41;21.10;99.90
31619;DHT22;18230;51.502;7.108;2023-06-10T01:14:51;21.00;99.90
31619;DHT22;18230;51.502;7.108;2023-06-10T01:19:57;21.00;99.90
31619;DHT22;18230;51.502;7.108;2023-06-10T01:24:58;20.90;99.90
31619;DHT22;18230;51.502;7.108;2023-06-10T01:30:04;20.90;99.90
31619;DHT22;18230;51.502;7.108;2023-06-10T01:35:08;20.80;99.90
31619;DHT22;18230;51.502;7.108;2023-06-10T01:40:10;20.80;99.90
31619;DHT22;18230;51.502;7.108;2023-06-10T01:45:12;20.80;99.90
31619;DHT22;18230;51.502;7.108;2023-06-10T01:50:12;20.70;99.90
31619;DHT22;18230;51.502;7.108;2023-06-10T01:55:13;20.60;99.90
31619;DHT22;18230;51.502;7.108;2023-06-10T02:00:14;20.50;99.90
31619;DHT22;18230;51.502;7.108;2023-06-10T02:05:15;20.30;99.90
31619;DHT22;18230;51.502;7.108;2023-06-10T02:10:15;20.30;99.90
31619;DHT22;18230;51.502;7.108;2023-06-10T02:15:16;20.20;99.90
31619;DHT22;18230;51.502;7.108;2023-06-10T02:20:17;20.10;99.90
31619;DHT22;18230;51.502;7.108;2023-06-10T02:25:17;20.00;99.90
31619;DHT22;18230;51.502;7.108;2023-06-10T02:30:18;20.00;99.90
31619;DHT22;18230;51.502;7.108;2023-06-10T02:35:19;20.00;99.90
31619;DHT22;18230;51.502;7.108;2023-06-10T02:40:20;20.00;99.90
31619;DHT22;18230;51.502;7.108;2023-06-10T02:45:20;19.90;99.90
31619;DHT22;18230;51.502;7.108;2023-06-10T02:50:21;19.80;99.90
31619;DHT22;18230;51.502;7.108;2023-06-10T02:55:22;19.70;99.90
31619;DHT22;18230;51.502;7.108;2023-06-10T03:00:26;19.70;99.90
31619;DHT22;18230;51.502;7.108;2023-06-10T03:05:27;19.60;99.90
31619;DHT22;18230;51.502;7.108;2023-06-10T03:10:28;19.60;99.90
31619;DHT22;18230;51.502;7.108;2023-06-10T03:15:28;19.60;99.90
31619;DHT22;18230;51.502;7.108;2023-06-10T03:20:33;19.50;99.90
31619;DHT22;18230;51.502;7.108;2023-06-10T03:25:37;19.40;99.90
31619;DHT22;18230;51.502;7.108;2023-06-10T03:30:37;19.30;99.90
31619;DHT22;18230;51.502;7.108;2023-06-10T03:35:38;19.40;99.90
31619;DHT22;18230;51.502;7.108;2023-06-10T03:40:39;19.30;99.90
31619;DHT22;18230;51.502;7.108;2023-06-10T03:45:39;19.30;99.90
31619;DHT22;18230;51.502;7.108;2023-06-10T03:50:41;19.30;99.90
31619;DHT22;18230;51.502;7.108;2023-06-10T03:55:42;19.20;99.90
31619;DHT22;18230;51.502;7.108;2023-06-10T04:00:42;19.20;99.90
31619;DHT22;18230;51.502;7.108;2023-06-10T04:05:43;19.30;99.90
31619;DHT22;18230;51.502;7.108;2023-06-10T04:10:44;19.20;99.90
31619;DHT22;18230;51.502;7.108;2023-06-10T04:15:44;19.40;99.90
31619;DHT22;18230;51.502;7.108;2023-06-10T04:20:45;19.60;99.90
31619;DHT22;18230;51.502;7.108;2023-06-10T04:25:46;19.50;99.90
31619;DHT22;18230;51.502;7.108;2023-06-10T04:30:47;19.60;99.90
31619;DHT22;18230;51.502;7.108;2023-06-10T04:35:48;19.60;99.90
31619;DHT22;18230;51.502;7.108;2023-06-10T04:40:49;19.60;99.90
31619;DHT22;18230;51.502;7.108;2023-06-10T04:45:49;19.70;99.90
31619;DHT22;18230;51.502;7.108;2023-06-10T04:50:50;19.70;99.90
31619;DHT22;18230;51.502;7.108;2023-06-10T04:55:51;19.70;99.90
31619;DHT22;18230;51.502;7.108;2023-06-10T05:00:51;19.90;99.90
31619;DHT22;18230;51.502;7.108;2023-06-10T05:05:52;20.00;99.90
31619;DHT22;18230;51.502;7.108;2023-06-10T05:10:52;20.00;99.90
31619;DHT22;18230;51.502;7.108;2023-06-10T05:15:53;20.20;99.90
31619;DHT22;18230;51.502;7.108;2023-06-10T05:20:54;20.30;99.90
31619;DHT22;18230;51.502;7.108;2023-06-10T05:25:54;20.50;99.90
31619;DHT22;18230;51.502;7.108;2023-06-10T05:30:55;20.50;99.90
31619;DHT22;18230;51.502;7.108;2023-06-10T05:35:56;20.90;99.90
31619;DHT22;18230;51.502;7.108;2023-06-10T05:40:56;21.00;99.90
31619;DHT22;18230;51.502;7.108;2023-06-10T05:45:59;21.10;99.90
31619;DHT22;18230;51.502;7.108;2023-06-10T05:50:59;21.70;99.90
31619;DHT22;18230;51.502;7.108;2023-06-10T05:56:00;21.80;99.90
31619;DHT22;18230;51.502;7.108;2023-06-10T06:01:01;21.70;99.90
31619;DHT22;18230;51.502;7.108;2023-06-10T06:06:03;21.90;99.90
31619;DHT22;18230;51.502;7.108;2023-06-10T06:11:03;22.10;99.90
31619;DHT22;18230;51.502;7.108;2023-06-10T06:16:04;22.40;99.90
31619;DHT22;18230;51.502;7.108;2023-06-10T06:21:05;22.20;99.90
31619;DHT22;18230;51.502;7.108;2023-06-10T06:26:05;22.30;99.90
31619;DHT22;18230;51.502;7.108;2023-06-10T06:31:07;23.00;99.90
31619;DHT22;18230;51.502;7.108;2023-06-10T06:36:07;22.90;99.90
31619;DHT22;18230;51.502;7.108;2023-06-10T06:41:08;22.70;99.90
31619;DHT22;18230;51.502;7.108;2023-06-10T06:46:09;22.70;99.90
31619;DHT22;18230;51.502;7.108;2023-06-10T06:51:10;22.90;99.90
31619;DHT22;18230;51.502;7.108;2023-06-10T06:56:11;22.90;99.90
31619;DHT22;18230;51.502;7.108;2023-06-10T07:01:12;23.00;99.90
31619;DHT22;18230;51.502;7.108;2023-06-10T07:06:13;23.20;99.90
31619;DHT22;18230;51.502;7.108;2023-06-10T07:11:14;23.30;99.90
31619;DHT22;18230;51.502;7.108;2023-06-10T07:16:14;23.60;99.90
31619;DHT22;18230;51.502;7.108;2023-06-10T07:21:15;23.60;99.90
31619;DHT22;18230;51.502;7.108;2023-06-10T07:26:16;23.80;99.90
31619;DHT22;18230;51.502;7.108;2023-06-10T07:31:16;23.90;99.90
31619;DHT22;18230;51.502;7.108;2023-06-10T07:36:17;24.10;99.90
31619;DHT22;18230;51.502;7.108;2023-06-10T07:41:18;24.10;99.90
31619;DHT22;18230;51.502;7.108;2023-06-10T07:46:23;24.10;99.90
31619;DHT22;18230;51.502;7.108;2023-06-10T07:51:24;24.30;99.90
31619;DHT22;18230;51.502;7.108;2023-06-10T07:56:24;24.60;99.90
31619;DHT22;18230;51.502;7.108;2023-06-10T08:01:26;24.70;99.90
31619;DHT22;18230;51.502;7.108;2023-06-10T08:06:26;24.90;99.90
31619;DHT22;18230;51.502;7.108;2023-06-10T08:11:27;25.00;99.90
31619;DHT22;18230;51.502;7.108;2023-06-10T08:16:28;25.00;99.90
31619;DHT22;18230;51.502;7.108;2023-06-10T08:21:35;25.20;99.90
31619;DHT22;18230;51.502;7.108;2023-06-10T08:26:51;25.40;99.90
31619;DHT22;18230;51.502;7.108;2023-06-10T08:31:52;25.50;99.90
31619;DHT22;18230;51.502;7.108;2023-06-10T08:36:53;25.60;99.90
31619;DHT22;18230;51.502;7.108;2023-06-10T08:47:25;25.90;99.90
31619;DHT22;18230;51.502;7.108;2023-06-10T08:52:35;25.80;99.90
31619;DHT22;18230;51.502;7.108;2023-06-10T08:57:37;26.20;99.90
31619;DHT22;18230;51.502;7.108;2023-06-10T09:02:38;26.30;99.90
31619;DHT22;18230;51.502;7.108;2023-06-10T09:07:39;26.40;99.90
31619;DHT22;18230;51.502;7.108;2023-06-10T09:12:40;26.60;99.90
31619;DHT22;18230;51.502;7.108;2023-06-10T09:17:40;26.70;99.90
31619;DHT22;18230;51.502;7.108;2023-06-10T09:22:42;27.00;99.90
31619;DHT22;18230;51.502;7.108;2023-06-10T09:27:51;26.90;99.90
31619;DHT22;18230;51.502;7.108;2023-06-10T09:32:56;26.90;99.90
31619;DHT22;18230;51.502;7.108;2023-06-10T09:37:59;27.00;99.90
31619;DHT22;18230;51.502;7.108;2023-06-10T09:43:00;27.30;99.90
31619;DHT22;18230;51.502;7.108;2023-06-10T09:48:01;27.70;99.90
31619;DHT22;18230;51.502;7.108;2023-06-10T09:53:02;27.80;99.90
31619;DHT22;18230;51.502;7.108;2023-06-10T09:58:04;27.60;99.40
31619;DHT22;18230;51.502;7.108;2023-06-10T10:03:05;27.70;99.10
31619;DHT22;18230;51.502;7.108;2023-06-10T10:08:07;27.90;98.40
31619;DHT22;18230;51.502;7.108;2023-06-10T10:13:09;28.00;97.70
31619;DHT22;18230;51.502;7.108;2023-06-10T10:18:11;28.00;96.20
31619;DHT22;18230;51.502;7.108;2023-06-10T10:23:15;28.10;95.60
31619;DHT22;18230;51.502;7.108;2023-06-10T10:28:20;28.30;95.20
31619;DHT22;18230;51.502;7.108;2023-06-10T10:33:33;28.30;94.50
31619;DHT22;18230;51.502;7.108;2023-06-10T10:38:36;28.40;93.90
31619;DHT22;18230;51.502;7.108;2023-06-10T10:43:37;28.40;94.00
31619;DHT22;18230;51.502;7.108;2023-06-10T10:48:39;28.60;93.70
31619;DHT22;18230;51.502;7.108;2023-06-10T10:53:41;28.70;92.30
31619;DHT22;18230;51.502;7.108;2023-06-10T10:59:05;28.60;91.50
31619;DHT22;18230;51.502;7.108;2023-06-10T11:04:08;28.80;91.30
31619;DHT22;18230;51.502;7.108;2023-06-10T11:09:28;29.00;91.00
31619;DHT22;18230;51.502;7.108;2023-06-10T11:14:32;28.80;88.20
31619;DHT22;18230;51.502;7.108;2023-06-10T11:19:34;29.10;90.80
31619;DHT22;18230;51.502;7.108;2023-06-10T11:24:36;29.20;88.10
31619;DHT22;18230;51.502;7.108;2023-06-10T11:29:37;29.10;86.10
31619;DHT22;18230;51.502;7.108;2023-06-10T11:34:38;29.20;86.50
31619;DHT22;18230;51.502;7.108;2023-06-10T11:39:39;29.40;85.50
31619;DHT22;18230;51.502;7.108;2023-06-10T11:44:53;29.30;83.70
31619;DHT22;18230;51.502;7.108;2023-06-10T11:49:57;29.40;78.80
31619;DHT22;18230;51.502;7.108;2023-06-10T11:54:58;29.70;76.20
31619;DHT22;18230;51.502;7.108;2023-06-10T12:00:06;29.70;72.80
31619;DHT22;18230;51.502;7.108;2023-06-10T12:05:14;29.70;75.10
31619;DHT22;18230;51.502;7.108;2023-06-10T12:10:15;29.60;73.30
31619;DHT22;18230;51.502;7.108;2023-06-10T12:15:24;29.70;74.50
31619;DHT22;18230;51.502;7.108;2023-06-10T12:20:28;29.80;72.50
31619;DHT22;18230;51.502;7.108;2023-06-10T12:25:29;29.80;73.30
31619;DHT22;18230;51.502;7.108;2023-06-10T12:30:30;29.80;69.40
31619;DHT22;18230;51.502;7.108;2023-06-10T12:35:31;29.90;71.40
31619;DHT22;18230;51.502;7.108;2023-06-10T12:40:37;30.00;69.80
31619;DHT22;18230;51.502;7.108;2023-06-10T12:45:41;29.90;69.30
31619;DHT22;18230;51.502;7.108;2023-06-10T12:50:54;30.00;70.30
31619;DHT22;18230;51.502;7.108;2023-06-10T12:55:55;30.10;67.90
31619;DHT22;18230;51.502;7.108;2023-06-10T13:00:55;30.00;67.90
31619;DHT22;18230;51.502;7.108;2023-06-10T13:05:57;30.00;68.60
31619;DHT22;18230;51.502;7.108;2023-06-10T13:10:58;30.10;66.80
31619;DHT22;18230;51.502;7.108;2023-06-10T13:15:59;30.30;65.90
31619;DHT22;18230;51.502;7.108;2023-06-10T13:20:59;30.30;65.20
31619;DHT22;18230;51.502;7.108;2023-06-10T13:26:00;30.40;65.60
31619;DHT22;18230;51.502;7.108;2023-06-10T13:31:03;30.50;64.00
31619;DHT22;18230;51.502;7.108;2023-06-10T13:36:04;30.70;63.50
31619;DHT22;18230;51.502;7.108;2023-06-10T13:41:05;30.70;60.80
31619;DHT22;18230;51.502;7.108;2023-06-10T13:46:07;30.60;61.30
31619;DHT22;18230;51.502;7.108;2023-06-10T13:51:08;30.80;60.30
31619;DHT22;18230;51.502;7.108;2023-06-10T13:56:09;31.10;59.60
31619;DHT22;18230;51.502;7.108;2023-06-10T14:01:10;31.30;60.80
31619;DHT22;18230;51.502;7.108;2023-06-10T14:06:11;31.30;59.70
31619;DHT22;18230;51.502;7.108;2023-06-10T14:11:15;31.50;60.00
31619;DHT22;18230;51.502;7.108;2023-06-10T14:16:16;31.70;59.70
31619;DHT22;18230;51.502;7.108;2023-06-10T14:21:17;31.60;59.80
31619;DHT22;18230;51.502;7.108;2023-06-10T14:26:18;31.60;60.20
31619;DHT22;18230;51.502;7.108;2023-06-10T14:31:19;31.80;59.80
31619;DHT22;18230;51.502;7.108;2023-06-10T14:36:20;31.80;58.80
31619;DHT22;18230;51.502;7.108;2023-06-10T14:41:21;31.80;59.30
31619;DHT22;18230;51.502;7.108;2023-06-10T14:46:22;32.00;59.60
31619;DHT22;18230;51.502;7.108;2023-06-10T14:51:23;32.00;58.30
31619;DHT22;18230;51.502;7.108;2023-06-10T14:56:24;32.00;58.50
31619;DHT22;18230;51.502;7.108;2023-06-10T15:01:26;32.10;58.70
31619;DHT22;18230;51.502;7.108;2023-06-10T15:06:27;32.10;58.10
31619;DHT22;18230;51.502;7.108;2023-06-10T15:11:28;32.00;58.70
31619;DHT22;18230;51.502;7.108;2023-06-10T15:16:29;32.20;58.60
31619;DHT22;18230;51.502;7.108;2023-06-10T15:21:30;32.30;58.40
31619;DHT22;18230;51.502;7.108;2023-06-10T15:26:30;32.20;58.00
31619;DHT22;18230;51.502;7.108;2023-06-10T15:31:31;32.20;57.20
31619;DHT22;18230;51.502;7.108;2023-06-10T15:36:32;32.40;57.40
31619;DHT22;18230;51.502;7.108;2023-06-10T15:41:36;32.50;57.60
31619;DHT22;18230;51.502;7.108;2023-06-10T15:46:37;32.60;57.00
31619;DHT22;18230;51.502;7.108;2023-06-10T15:51:37;32.70;57.30
31619;DHT22;18230;51.502;7.108;2023-06-10T15:56:38;32.50;57.20
31619;DHT22;18230;51.502;7.108;2023-06-10T16:01:40;32.70;57.10
31619;DHT22;18230;51.502;7.108;2023-06-10T16:06:41;32.60;56.90
31619;DHT22;18230;51.502;7.108;2023-06-10T16:11:41;32.80;57.20
31619;DHT22;18230;51.502;7.108;2023-06-10T16:16:42;32.90;57.60
31619;DHT22;18230;51.502;7.108;2023-06-10T16:21:43;32.80;57.20
31619;DHT22;18230;51.502;7.108;2023-06-10T16:26:44;32.60;56.80
31619;DHT22;18230;51.502;7.108;2023-06-10T16:31:45;32.70;57.30
31619;DHT22;18230;51.502;7.108;2023-06-10T16:36:46;32.50;57.40
31619;DHT22;18230;51.502;7.108;2023-06-10T16:41:46;32.40;57.90
31619;DHT22;18230;51.502;7.108;2023-06-10T16:46:47;32.50;57.50
31619;DHT22;18230;51.502;7.108;2023-06-10T16:51:48;32.60;57.50
31619;DHT22;18230;51.502;7.108;2023-06-10T16:56:48;32.80;57.80
31619;DHT22;18230;51.502;7.108;2023-06-10T17:01:49;32.60;57.80
31619;DHT22;18230;51.502;7.108;2023-06-10T17:06:50;32.70;58.00
31619;DHT22;18230;51.502;7.108;2023-06-10T17:11:51;32.50;57.70
31619;DHT22;18230;51.502;7.108;2023-06-10T17:16:52;32.50;57.80
31619;DHT22;18230;51.502;7.108;2023-06-10T17:21:52;32.60;58.00
31619;DHT22;18230;51.502;7.108;2023-06-10T17:26:53;32.60;57.90
31619;DHT22;18230;51.502;7.108;2023-06-10T17:31:54;32.50;57.90
31619;DHT22;18230;51.502;7.108;2023-06-10T17:36:55;32.70;58.40
31619;DHT22;18230;51.502;7.108;2023-06-10T17:41:56;32.50;58.20
31619;DHT22;18230;51.502;7.108;2023-06-10T17:46:57;32.30;58.60
31619;DHT22;18230;51.502;7.108;2023-06-10T17:51:58;32.30;59.10
31619;DHT22;18230;51.502;7.108;2023-06-10T17:56:58;32.50;59.20
31619;DHT22;18230;51.502;7.108;2023-06-10T18:01:59;32.30;59.20
31619;DHT22;18230;51.502;7.108;2023-06-10T18:07:00;32.00;59.20
31619;DHT22;18230;51.502;7.108;2023-06-10T18:12:01;32.10;59.50
31619;DHT22;18230;51.502;7.108;2023-06-10T18:17:01;32.20;59.60
31619;DHT22;18230;51.502;7.108;2023-06-10T18:22:02;32.20;60.20
31619;DHT22;18230;51.502;7.108;2023-06-10T18:27:03;32.00;60.50
31619;DHT22;18230;51.502;7.108;2023-06-10T18:32:05;31.70;62.40
31619;DHT22;18230;51.502;7.108;2023-06-10T18:37:07;31.60;64.60
31619;DHT22;18230;51.502;7.108;2023-06-10T18:42:08;31.60;64.60
31619;DHT22;18230;51.502;7.108;2023-06-10T18:47:09;31.30;65.60
31619;DHT22;18230;51.502;7.108;2023-06-10T18:52:10;31.00;67.00
31619;DHT22;18230;51.502;7.108;2023-06-10T18:57:11;30.60;68.60
31619;DHT22;18230;51.502;7.108;2023-06-10T19:02:13;30.40;70.00
31619;DHT22;18230;51.502;7.108;2023-06-10T19:07:15;30.10;70.20
31619;DHT22;18230;51.502;7.108;2023-06-10T19:12:16;29.70;70.90
31619;DHT22;18230;51.502;7.108;2023-06-10T19:17:17;29.40;72.20
31619;DHT22;18230;51.502;7.108;2023-06-10T19:22:18;29.20;73.10
31619;DHT22;18230;51.502;7.108;2023-06-10T19:27:18;29.00;73.80
31619;DHT22;18230;51.502;7.108;2023-06-10T19:32:19;28.80;74.20
31619;DHT22;18230;51.502;7.108;2023-06-10T19:37:20;28.60;74.90
31619;DHT22;18230;51.502;7.108;2023-06-10T19:42:21;28.30;75.80
31619;DHT22;18230;51.502;7.108;2023-06-10T19:47:22;28.20;76.70
31619;DHT22;18230;51.502;7.108;2023-06-10T19:52:24;28.00;77.60
31619;DHT22;18230;51.502;7.108;2023-06-10T19:57:25;27.80;78.50
31619;DHT22;18230;51.502;7.108;2023-06-10T20:02:26;27.60;79.30
31619;DHT22;18230;51.502;7.108;2023-06-10T20:07:27;27.50;79.70
31619;DHT22;18230;51.502;7.108;2023-06-10T20:12:27;27.40;80.30
31619;DHT22;18230;51.502;7.108;2023-06-10T20:17:28;27.20;81.10
31619;DHT22;18230;51.502;7.108;2023-06-10T20:22:29;27.10;82.10
31619;DHT22;18230;51.502;7.108;2023-06-10T20:27:30;27.00;82.80
31619;DHT22;18230;51.502;7.108;2023-06-10T20:32:31;26.90;83.90
31619;DHT22;18230;51.502;7.108;2023-06-10T20:37:31;26.70;84.90
31619;DHT22;18230;51.502;7.108;2023-06-10T20:42:32;26.60;86.00
31619;DHT22;18230;51.502;7.108;2023-06-10T20:47:33;26.60;86.90
31619;DHT22;18230;51.502;7.108;2023-06-10T20:52:34;26.40;88.60
31619;DHT22;18230;51.502;7.108;2023-06-10T20:57:34;26.20;89.90
31619;DHT22;18230;51.502;7.108;2023-06-10T21:02:35;26.20;90.50
31619;DHT22;18230;51.502;7.108;2023-06-10T21:07:36;26.00;91.10
31619;DHT22;18230;51.502;7.108;2023-06-10T21:12:37;26.00;91.60
31619;DHT22;18230;51.502;7.108;2023-06-10T21:17:40;25.90;92.30
31619;DHT22;18230;51.502;7.108;2023-06-10T21:22:41;25.80;93.10
31619;DHT22;18230;51.502;7.108;2023-06-10T21:27:42;25.70;93.80
31619;DHT22;18230;51.502;7.108;2023-06-10T21:32:43;25.70;94.60
31619;DHT22;18230;51.502;7.108;2023-06-10T21:37:45;25.60;95.10
31619;DHT22;18230;51.502;7.108;2023-06-10T21:42:46;25.50;95.70
31619;DHT22;18230;51.502;7.108;2023-06-10T21:47:46;25.40;96.80
31619;DHT22;18230;51.502;7.108;2023-06-10T21:52:47;25.20;97.60
31619;DHT22;18230;51.502;7.108;2023-06-10T21:57:48;25.20;98.30
31619;DHT22;18230;51.502;7.108;2023-06-10T22:02:49;25.10;99.10
31619;DHT22;18230;51.502;7.108;2023-06-10T22:07:50;25.00;99.90
31619;DHT22;18230;51.502;7.108;2023-06-10T22:12:51;24.90;99.90
31619;DHT22;18230;51.502;7.108;2023-06-10T22:17:52;24.90;99.90
31619;DHT22;18230;51.502;7.108;2023-06-10T22:22:56;24.80;99.90
31619;DHT22;18230;51.502;7.108;2023-06-10T22:27:57;24.70;99.90
31619;DHT22;18230;51.502;7.108;2023-06-10T22:32:57;24.70;99.90
31619;DHT22;18230;51.502;7.108;2023-06-10T22:37:58;24.70;99.90
31619;DHT22;18230;51.502;7.108;2023-06-10T22:42:59;24.50;99.90
31619;DHT22;18230;51.502;7.108;2023-06-10T22:48:00;24.50;99.90
31619;DHT22;18230;51.502;7.108;2023-06-10T22:53:01;24.30;99.90
31619;DHT22;18230;51.502;7.108;2023-06-10T22:58:02;24.10;99.90
31619;DHT22;18230;51.502;7.108;2023-06-10T23:03:03;24.00;99.90
31619;DHT22;18230;51.502;7.108;2023-06-10T23:08:03;23.90;99.90
31619;DHT22;18230;51.502;7.108;2023-06-10T23:13:04;23.80;99.90
31619;DHT22;18230;51.502;7.108;2023-06-10T23:18:05;23.80;99.90
31619;DHT22;18230;51.502;7.108;2023-06-10T23:23:06;23.60;99.90
31619;DHT22;18230;51.502;7.108;2023-06-10T23:28:07;23.50;99.90
31619;DHT22;18230;51.502;7.108;2023-06-10T23:33:08;23.40;99.90
31619;DHT22;18230;51.502;7.108;2023-06-10T23:38:09;23.30;99.90
31619;DHT22;18230;51.502;7.108;2023-06-10T23:43:11;23.20;99.90
31619;DHT22;18230;51.502;7.108;2023-06-10T23:48:13;23.10;99.90
31619;DHT22;18230;51.502;7.108;2023-06-10T23:53:14;23.00;99.90
31619;DHT22;18230;51.502;7.108;2023-06-10T23:58:15;22.90;99.90
